KSLR

Details ICAO KSLR
Name SULPHUR SPRINGS MUNI
Region United States
Timezone America/Chicago (UTC-6.0)
Plans Departing 3
Arriving 6
Stats Elevation 489 ft / 149 m (AMSL)
Location 33.159832° -95.621146°
Runways 1
Magnetic Variation 2.558° E
Sunrise 2017-12-13 13:18:42 UTC / 2017-12-13 07:18:42 Local
Sunset 2017-12-13 23:17:45 UTC / 2017-12-13 17:17:45 Local
Advertisement - Login to hide

Runways

ID Width Length Bearing (true) Bearing (mag) Surface Threshold Offset Overrun Length
18 75 ft / 23 m 5,014 ft / 1,528 m 189.62° 187.06° Asphalt 0 ft / 0 m 0 ft / 0 m
36 75 ft / 23 m 5,014 ft / 1,528 m 9.62° 7.06° Asphalt 0 ft / 0 m 0 ft / 0 m

Map

Weather


0- 5 10 15 20 25 30 35+ Temperature / ° C

Clouds and Precipitation
Forecast for 2017-12-14 06:00 UTC. Updated an hour ago

Ground ~20,000 ft ~40,000 ft Winds

METAR

KSLR 140415Z AUTO 22006KT 10SM CLR 09/00 A2994 RMK AO2 T00901001

TAF

Not found

Frequencies

Recorded 118.35 MHz AWOS 3
Unicom 123.07 MHz CTAF/UNICOM
Warning: Do not use this data for real-world aviation or navigation. No guarantee of current accuracy is given.